createdAt,value
2019-05-01T00:01:43.280Z,99.90
2019-05-01T00:04:37.155Z,99.90
2019-05-01T00:07:16.593Z,99.90
2019-05-01T00:09:48.296Z,99.90
2019-05-01T00:12:20.794Z,99.90
2019-05-01T00:14:52.769Z,99.90
2019-05-01T00:17:27.630Z,99.90
2019-05-01T00:19:58.552Z,99.90
2019-05-01T00:22:31.471Z,99.90
2019-05-01T00:25:03.252Z,99.90
2019-05-01T00:27:35.021Z,99.90
2019-05-01T00:30:08.899Z,99.90
2019-05-01T00:32:40.640Z,99.90
2019-05-01T00:35:12.798Z,99.90
2019-05-01T00:37:44.459Z,99.90
2019-05-01T00:40:16.359Z,99.90
2019-05-01T00:42:49.001Z,99.90
2019-05-01T00:45:20.951Z,99.90
2019-05-01T00:47:53.991Z,99.90
2019-05-01T00:50:25.922Z,99.90
2019-05-01T00:52:57.878Z,99.90
2019-05-01T00:56:06.820Z,99.90
2019-05-01T00:59:00.612Z,99.90
2019-05-01T01:01:50.275Z,99.90
2019-05-01T01:04:22.140Z,99.90
2019-05-01T01:06:53.774Z,99.90
2019-05-01T01:09:25.461Z,99.90
2019-05-01T01:11:57.162Z,99.90
2019-05-01T01:14:28.849Z,99.90
2019-05-01T01:17:01.535Z,99.90
2019-05-01T01:19:33.277Z,99.90
2019-05-01T01:22:05.033Z,99.90
2019-05-01T01:24:36.873Z,99.90
2019-05-01T01:27:08.855Z,99.90
2019-05-01T01:29:40.642Z,99.90
2019-05-01T01:32:12.373Z,99.90
2019-05-01T01:34:44.281Z,99.90
2019-05-01T01:37:16.423Z,99.90
2019-05-01T01:39:48.346Z,99.90
2019-05-01T01:42:20.753Z,99.90
2019-05-01T01:44:59.363Z,99.90
2019-05-01T01:47:31.299Z,99.90
2019-05-01T01:50:03.028Z,99.90
2019-05-01T01:52:34.866Z,99.90
2019-05-01T01:55:07.891Z,99.90
2019-05-01T01:57:40.112Z,99.90
2019-05-01T02:00:13.793Z,99.90
2019-05-01T02:02:51.712Z,99.90
2019-05-01T02:05:27.482Z,99.90
2019-05-01T02:07:59.284Z,99.90
2019-05-01T02:10:42.379Z,99.90
2019-05-01T02:13:04.882Z,99.90
2019-05-01T02:15:36.642Z,99.90
2019-05-01T02:18:08.667Z,99.90
2019-05-01T02:20:40.505Z,99.90
2019-05-01T02:23:12.284Z,99.90
2019-05-01T02:25:44.971Z,99.90
2019-05-01T02:28:25.117Z,99.90
2019-05-01T02:31:27.092Z,99.90
2019-05-01T02:33:46.624Z,99.90
2019-05-01T02:36:21.527Z,99.90
2019-05-01T02:38:56.017Z,99.90
2019-05-01T02:41:34.641Z,99.90
2019-05-01T02:44:26.986Z,99.90
2019-05-01T02:47:01.574Z,99.90
2019-05-01T02:49:40.473Z,99.90
2019-05-01T02:52:13.627Z,99.90
2019-05-01T02:54:47.872Z,99.90
2019-05-01T02:57:23.222Z,99.90
2019-05-01T02:59:55.843Z,99.90
2019-05-01T03:02:29.147Z,99.90
2019-05-01T03:05:02.303Z,99.90
2019-05-01T03:07:37.280Z,99.90
2019-05-01T03:10:10.060Z,99.90
2019-05-01T03:12:44.686Z,99.90
2019-05-01T03:15:18.448Z,99.90
2019-05-01T03:18:12.183Z,99.90
2019-05-01T03:20:53.461Z,99.90
2019-05-01T03:23:38.423Z,99.90
2019-05-01T03:26:10.452Z,99.90
2019-05-01T03:28:42.432Z,99.90
2019-05-01T03:31:14.604Z,99.90
2019-05-01T03:33:46.927Z,99.90
2019-05-01T03:36:19.171Z,99.90
2019-05-01T03:38:51.647Z,99.90
2019-05-01T03:41:23.668Z,99.90
2019-05-01T03:43:55.970Z,99.90
2019-05-01T03:46:28.332Z,99.90
2019-05-01T03:49:01.134Z,99.90
2019-05-01T03:51:32.987Z,99.90
2019-05-01T03:54:04.761Z,99.90
2019-05-01T03:56:36.593Z,99.90
2019-05-01T03:59:08.562Z,99.90
2019-05-01T04:02:05.749Z,99.90
2019-05-01T04:04:37.500Z,99.90
2019-05-01T04:07:09.487Z,99.90
2019-05-01T04:09:41.709Z,99.90
2019-05-01T04:12:13.451Z,99.90
2019-05-01T04:14:46.052Z,99.90
2019-05-01T04:17:27.009Z,99.90
2019-05-01T04:19:59.347Z,99.90
2019-05-01T04:22:31.049Z,99.90
2019-05-01T04:25:03.190Z,99.90
2019-05-01T04:27:37.386Z,99.90
2019-05-01T04:30:16.980Z,99.90
2019-05-01T04:32:53.098Z,99.90
2019-05-01T04:35:45.825Z,99.90
2019-05-01T04:38:19.239Z,99.90
2019-05-01T04:40:51.027Z,99.90
2019-05-01T04:43:23.215Z,99.90
2019-05-01T04:45:56.534Z,99.90
2019-05-01T04:48:28.307Z,99.90
2019-05-01T04:51:00.367Z,99.90
2019-05-01T04:53:32.101Z,99.90
2019-05-01T04:56:05.418Z,99.90
2019-05-01T04:58:37.609Z,99.90
2019-05-01T05:01:09.526Z,98.20
2019-05-01T05:03:41.451Z,97.30
2019-05-01T05:06:13.298Z,98.50
2019-05-01T05:08:45.262Z,96.40
2019-05-01T05:11:23.131Z,95.90
2019-05-01T05:14:26.249Z,93.40
2019-05-01T05:17:20.171Z,91.20
2019-05-01T05:19:52.271Z,87.10
2019-05-01T05:22:24.878Z,84.20
2019-05-01T05:24:56.499Z,81.40
2019-05-01T05:27:29.406Z,79.60
2019-05-01T05:30:01.473Z,80.40
2019-05-01T05:32:36.792Z,76.50
2019-05-01T05:35:10.031Z,78.00
2019-05-01T05:38:03.318Z,76.80
2019-05-01T05:40:36.525Z,73.10
2019-05-01T05:43:08.582Z,70.80
2019-05-01T05:45:40.512Z,69.00
2019-05-01T05:48:12.439Z,70.30
2019-05-01T05:51:04.510Z,71.40
2019-05-01T05:53:41.372Z,70.80
2019-05-01T05:56:18.988Z,71.30
2019-05-01T05:58:54.968Z,72.20
2019-05-01T06:01:42.044Z,73.20
2019-05-01T06:04:33.940Z,73.60
2019-05-01T06:07:25.267Z,74.30
2019-05-01T06:10:12.105Z,73.10
2019-05-01T06:13:10.306Z,72.20
2019-05-01T06:16:07.151Z,73.30
2019-05-01T06:18:47.821Z,70.70
2019-05-01T06:21:34.792Z,71.50
2019-05-01T06:24:21.248Z,70.90
2019-05-01T06:26:53.250Z,71.10
2019-05-01T06:29:25.587Z,69.70
2019-05-01T06:31:58.788Z,71.30
2019-05-01T06:34:30.665Z,71.60
2019-05-01T06:37:02.518Z,72.30
2019-05-01T06:39:34.440Z,71.70
2019-05-01T06:42:09.764Z,72.40
2019-05-01T06:44:49.140Z,71.30
2019-05-01T06:47:44.203Z,69.10
2019-05-01T06:50:31.961Z,69.70
2019-05-01T06:53:19.302Z,69.80
2019-05-01T06:55:52.008Z,68.60
2019-05-01T06:58:24.643Z,67.40
2019-05-01T07:00:56.346Z,66.90
2019-05-01T07:03:28.429Z,67.30
2019-05-01T07:06:00.386Z,65.60
2019-05-01T07:08:34.303Z,64.20
2019-05-01T07:11:06.510Z,67.00
2019-05-01T07:13:51.944Z,68.90
2019-05-01T07:16:24.713Z,69.50
2019-05-01T07:19:05.626Z,69.90
2019-05-01T07:21:32.753Z,71.80
2019-05-01T07:24:05.052Z,71.10
2019-05-01T07:26:37.132Z,69.10
2019-05-01T07:29:12.138Z,67.60
2019-05-01T07:31:43.399Z,67.30
2019-05-01T07:34:16.835Z,66.70
2019-05-01T07:36:50.246Z,65.60
2019-05-01T07:39:22.097Z,64.10
2019-05-01T07:41:55.862Z,66.10
2019-05-01T07:44:35.057Z,66.20
2019-05-01T07:47:25.899Z,64.90
2019-05-01T07:50:00.402Z,64.80
2019-05-01T07:52:32.243Z,67.90
2019-05-01T07:55:04.517Z,69.30
2019-05-01T07:57:39.514Z,68.40
2019-05-01T08:00:15.821Z,67.00
2019-05-01T08:02:47.864Z,67.20
2019-05-01T08:05:19.646Z,67.00
2019-05-01T08:07:51.178Z,66.50
2019-05-01T08:10:25.933Z,65.20
2019-05-01T08:13:00.415Z,63.80
2019-05-01T08:15:32.579Z,64.80
2019-05-01T08:18:36.193Z,64.80
2019-05-01T08:21:26.034Z,64.60
2019-05-01T08:24:00.069Z,62.60
2019-05-01T08:26:32.268Z,63.20
2019-05-01T08:29:41.965Z,63.80
2019-05-01T08:32:28.999Z,63.10
2019-05-01T08:35:05.463Z,62.00
2019-05-01T08:37:37.359Z,62.00
2019-05-01T08:40:09.928Z,62.30
2019-05-01T08:42:42.693Z,62.00
2019-05-01T08:45:40.728Z,62.00
2019-05-01T08:48:35.782Z,62.40
2019-05-01T08:51:05.210Z,59.30
2019-05-01T08:53:37.151Z,61.20
2019-05-01T08:56:09.829Z,60.30
2019-05-01T08:58:44.897Z,58.40
2019-05-01T09:01:16.313Z,58.20
2019-05-01T09:03:49.752Z,58.70
2019-05-01T09:06:33.759Z,58.40
2019-05-01T09:08:55.366Z,58.20
2019-05-01T09:11:26.862Z,57.00
2019-05-01T09:13:58.990Z,56.20
2019-05-01T09:16:31.290Z,56.10
2019-05-01T09:19:03.113Z,55.00
2019-05-01T09:21:37.766Z,55.30
2019-05-01T09:24:07.949Z,55.50
2019-05-01T09:26:49.733Z,54.90
2019-05-01T09:29:23.679Z,54.60
2019-05-01T09:31:55.391Z,54.00
2019-05-01T09:34:27.103Z,53.80
2019-05-01T09:36:58.681Z,53.20
2019-05-01T09:39:32.181Z,52.00
2019-05-01T09:42:06.598Z,51.40
2019-05-01T09:44:37.930Z,51.10
2019-05-01T09:47:10.894Z,51.90
2019-05-01T09:49:42.840Z,51.20
2019-05-01T09:52:34.107Z,52.20
2019-05-01T09:55:27.725Z,53.10
2019-05-01T09:57:59.450Z,53.00
2019-05-01T10:00:32.299Z,53.30
2019-05-01T10:03:04.013Z,52.10
2019-05-01T10:05:37.953Z,52.00
2019-05-01T10:08:08.885Z,52.20
2019-05-01T10:10:40.723Z,52.40
2019-05-01T10:13:13.222Z,51.70
2019-05-01T10:15:45.013Z,52.90
2019-05-01T10:18:16.559Z,53.00
2019-05-01T10:20:48.311Z,54.40
2019-05-01T10:23:19.728Z,55.10
2019-05-01T10:25:54.351Z,55.20
2019-05-01T10:28:45.207Z,54.50
2019-05-01T10:31:42.865Z,54.80
2019-05-01T10:34:25.257Z,53.50
2019-05-01T10:36:57.091Z,53.10
2019-05-01T10:39:30.271Z,53.90
2019-05-01T10:42:02.390Z,53.10
2019-05-01T10:44:34.606Z,52.60
2019-05-01T10:47:06.881Z,53.40
2019-05-01T10:49:39.188Z,53.30
2019-05-01T10:52:14.230Z,52.70
2019-05-01T10:54:46.625Z,53.50
2019-05-01T10:57:19.000Z,53.90
2019-05-01T10:59:51.016Z,54.40
2019-05-01T11:02:23.443Z,55.10
2019-05-01T11:04:56.297Z,54.70
2019-05-01T11:07:28.488Z,54.20
2019-05-01T11:10:00.874Z,53.70
2019-05-01T11:12:33.047Z,53.70
2019-05-01T11:15:05.822Z,52.10
2019-05-01T11:17:37.570Z,52.30
2019-05-01T11:20:10.252Z,53.30
2019-05-01T11:22:42.609Z,52.50
2019-05-01T11:25:17.370Z,52.10
2019-05-01T11:27:49.644Z,52.40
2019-05-01T11:30:21.966Z,52.80
2019-05-01T11:33:23.978Z,52.60
2019-05-01T11:36:13.956Z,52.40
2019-05-01T11:39:10.699Z,52.30
2019-05-01T11:41:51.807Z,52.80
2019-05-01T11:44:24.045Z,52.40
2019-05-01T11:46:57.514Z,51.70
2019-05-01T11:49:29.583Z,51.80
2019-05-01T11:52:01.580Z,52.00
2019-05-01T11:54:33.561Z,52.50
2019-05-01T11:57:06.664Z,53.20
2019-05-01T11:59:38.550Z,53.00
2019-05-01T12:02:10.470Z,52.40
2019-05-01T12:04:42.395Z,52.50
2019-05-01T12:07:14.946Z,53.00
2019-05-01T12:09:47.069Z,51.80
2019-05-01T12:12:21.051Z,51.60
2019-05-01T12:14:53.477Z,51.90
2019-05-01T12:17:38.954Z,52.10
2019-05-01T12:20:14.598Z,52.50
2019-05-01T12:22:49.605Z,51.90
2019-05-01T12:25:20.557Z,52.20
2019-05-01T12:27:52.805Z,51.80
2019-05-01T12:30:25.416Z,51.30
2019-05-01T12:32:57.689Z,51.20
2019-05-01T12:35:29.857Z,51.20
2019-05-01T12:38:04.085Z,50.60
2019-05-01T12:40:36.214Z,50.20
2019-05-01T12:43:08.726Z,50.50
2019-05-01T12:45:41.541Z,50.30
2019-05-01T12:48:14.015Z,50.40
2019-05-01T12:50:48.239Z,50.30
2019-05-01T12:53:27.837Z,49.30
2019-05-01T12:56:18.647Z,48.80
2019-05-01T12:58:51.458Z,48.60
2019-05-01T13:01:23.705Z,48.60
2019-05-01T13:03:56.251Z,47.90
2019-05-01T13:06:28.813Z,48.00
2019-05-01T13:09:00.885Z,47.30
2019-05-01T13:11:34.670Z,47.10
2019-05-01T13:14:07.015Z,47.40
2019-05-01T13:16:38.956Z,47.10
2019-05-01T13:19:12.061Z,46.80
2019-05-01T13:21:44.043Z,46.80
2019-05-01T13:24:16.067Z,45.90
2019-05-01T13:27:10.068Z,47.10
2019-05-01T13:29:46.957Z,47.20
2019-05-01T13:32:36.732Z,45.60
2019-05-01T13:35:08.889Z,45.70
2019-05-01T13:37:40.777Z,45.20
2019-05-01T13:40:13.306Z,45.90
2019-05-01T13:42:46.845Z,46.00
2019-05-01T13:45:19.074Z,45.90
2019-05-01T13:47:54.274Z,46.10
2019-05-01T13:50:25.395Z,46.20
2019-05-01T13:52:57.577Z,46.20
2019-05-01T13:55:30.039Z,46.80
2019-05-01T13:58:02.280Z,46.80
2019-05-01T14:00:34.595Z,46.30
2019-05-01T14:03:07.166Z,45.90
2019-05-01T14:05:39.541Z,46.00
2019-05-01T14:08:11.561Z,45.90
2019-05-01T14:10:43.790Z,46.10
2019-05-01T14:13:15.902Z,45.70
2019-05-01T14:15:47.891Z,45.50
2019-05-01T14:18:20.198Z,44.40
2019-05-01T14:21:11.445Z,44.30
2019-05-01T14:24:11.453Z,44.80
2019-05-01T14:26:43.684Z,44.50
2019-05-01T14:29:15.865Z,43.30
2019-05-01T14:31:48.090Z,43.10
2019-05-01T14:34:20.178Z,42.60
2019-05-01T14:36:52.329Z,42.30
2019-05-01T14:39:24.288Z,42.20
2019-05-01T14:41:56.420Z,41.80
2019-05-01T14:44:36.505Z,40.10
2019-05-01T14:47:02.367Z,40.00
2019-05-01T14:49:34.669Z,40.10
2019-05-01T14:52:06.842Z,39.70
2019-05-01T14:54:39.091Z,39.70
2019-05-01T14:57:11.250Z,39.20
2019-05-01T14:59:43.138Z,39.20
2019-05-01T15:02:15.363Z,39.00
2019-05-01T15:04:47.614Z,39.60
2019-05-01T15:07:19.777Z,39.50
2019-05-01T15:09:51.582Z,39.30
2019-05-01T15:12:23.848Z,37.90
2019-05-01T15:15:17.602Z,38.20
2019-05-01T15:18:07.525Z,37.80
2019-05-01T15:20:39.659Z,38.70
2019-05-01T15:23:12.081Z,39.00
2019-05-01T15:25:44.170Z,39.10
2019-05-01T15:28:16.367Z,38.90
2019-05-01T15:30:48.439Z,39.40
2019-05-01T15:33:20.758Z,39.90
2019-05-01T15:35:52.901Z,40.20
2019-05-01T15:38:25.694Z,40.50
2019-05-01T15:41:04.097Z,41.00
2019-05-01T15:43:38.699Z,41.00
2019-05-01T15:46:10.724Z,41.60
2019-05-01T15:48:42.938Z,42.20
2019-05-01T15:51:15.228Z,42.30
2019-05-01T15:53:47.408Z,42.90
2019-05-01T15:56:19.469Z,43.60
2019-05-01T15:58:51.518Z,44.20
2019-05-01T16:01:23.434Z,44.60
2019-05-01T16:03:55.806Z,45.30
2019-05-01T16:06:27.974Z,45.40
2019-05-01T16:09:00.298Z,45.60
2019-05-01T16:11:50.409Z,46.10
2019-05-01T16:14:22.750Z,46.40
2019-05-01T16:16:54.822Z,46.80
2019-05-01T16:19:26.799Z,46.80
2019-05-01T16:21:58.998Z,46.60
2019-05-01T16:24:31.151Z,46.70
2019-05-01T16:27:03.290Z,46.10
2019-05-01T16:29:35.476Z,46.30
2019-05-01T16:32:07.645Z,46.30
2019-05-01T16:34:40.047Z,46.40
2019-05-01T16:37:12.003Z,46.80
2019-05-01T16:40:18.318Z,47.00
2019-05-01T16:42:50.667Z,47.20
2019-05-01T16:45:22.699Z,47.50
2019-05-01T16:47:56.099Z,47.60
2019-05-01T16:50:28.192Z,47.60
2019-05-01T16:53:00.419Z,48.20
2019-05-01T16:55:33.030Z,48.10
2019-05-01T16:58:06.616Z,48.00
2019-05-01T17:01:10.948Z,48.00
2019-05-01T17:04:04.165Z,48.30
2019-05-01T17:06:55.729Z,48.40
2019-05-01T17:09:52.890Z,48.70
2019-05-01T17:12:28.493Z,48.80
2019-05-01T17:15:00.528Z,48.30
2019-05-01T17:17:32.488Z,48.90
2019-05-01T17:20:06.075Z,49.00
2019-05-01T17:22:38.509Z,49.20
2019-05-01T17:25:10.473Z,48.80
2019-05-01T17:27:42.905Z,49.60
2019-05-01T17:30:19.341Z,49.60
2019-05-01T17:32:51.833Z,49.90
2019-05-01T17:35:24.369Z,50.00
2019-05-01T17:37:56.880Z,50.00
2019-05-01T17:40:29.054Z,50.10
2019-05-01T17:43:01.466Z,50.60
2019-05-01T17:45:34.874Z,50.50
2019-05-01T17:48:07.820Z,50.80
2019-05-01T17:50:40.199Z,51.00
2019-05-01T17:53:12.359Z,51.20
2019-05-01T17:55:44.543Z,51.30
2019-05-01T17:58:16.792Z,51.70
2019-05-01T18:01:32.526Z,51.70
2019-05-01T18:04:07.900Z,52.10
2019-05-01T18:06:41.875Z,52.40
2019-05-01T18:09:16.420Z,52.10
2019-05-01T18:11:52.076Z,52.80
2019-05-01T18:14:22.625Z,52.80
2019-05-01T18:16:54.828Z,53.00
2019-05-01T18:19:27.049Z,52.90
2019-05-01T18:22:15.277Z,52.90
2019-05-01T18:24:58.394Z,53.50
2019-05-01T18:28:05.756Z,53.50
2019-05-01T18:30:40.190Z,53.70
2019-05-01T18:33:12.491Z,54.20
2019-05-01T18:35:48.860Z,54.10
2019-05-01T18:38:27.986Z,54.50
2019-05-01T18:41:15.701Z,54.60
2019-05-01T18:43:48.058Z,54.70
2019-05-01T18:46:20.346Z,55.10
2019-05-01T18:48:52.571Z,55.70
2019-05-01T18:51:24.766Z,55.00
2019-05-01T18:53:57.804Z,55.10
2019-05-01T18:56:30.839Z,55.40
2019-05-01T18:59:02.936Z,55.50
2019-05-01T19:01:35.399Z,55.50
2019-05-01T19:04:07.471Z,55.80
2019-05-01T19:06:41.806Z,55.50
2019-05-01T19:09:14.990Z,55.80
2019-05-01T19:11:47.677Z,56.00
2019-05-01T19:14:23.522Z,56.30
2019-05-01T19:16:55.332Z,56.70
2019-05-01T19:19:27.385Z,56.80
2019-05-01T19:21:59.804Z,56.40
2019-05-01T19:24:32.594Z,56.60
2019-05-01T19:27:06.363Z,56.70
2019-05-01T19:29:38.540Z,56.80
2019-05-01T19:32:11.260Z,56.90
2019-05-01T19:34:43.503Z,57.00
2019-05-01T19:37:21.275Z,57.80
2019-05-01T19:39:53.819Z,57.40
2019-05-01T19:42:24.178Z,57.70
2019-05-01T19:44:57.699Z,57.90
2019-05-01T19:47:30.416Z,57.90
2019-05-01T19:50:07.496Z,58.20
2019-05-01T19:52:37.945Z,58.30
2019-05-01T19:55:11.649Z,58.60
2019-05-01T19:57:43.934Z,58.70
2019-05-01T20:00:19.074Z,59.00
2019-05-01T20:02:54.189Z,59.10
2019-05-01T20:05:27.078Z,59.70
2019-05-01T20:07:59.458Z,60.10
2019-05-01T20:10:31.687Z,60.40
2019-05-01T20:13:07.089Z,61.10
2019-05-01T20:15:37.859Z,61.80
2019-05-01T20:18:10.073Z,62.20
2019-05-01T20:20:42.342Z,62.60
2019-05-01T20:23:14.533Z,63.30
2019-05-01T20:25:51.117Z,63.80
2019-05-01T20:28:22.466Z,64.30
2019-05-01T20:30:55.103Z,64.90
2019-05-01T20:33:27.563Z,65.10
2019-05-01T20:36:00.408Z,66.00
2019-05-01T20:38:33.614Z,66.50
2019-05-01T20:41:10.010Z,66.80
2019-05-01T20:43:43.346Z,66.90
2019-05-01T20:46:13.489Z,67.20
2019-05-01T20:48:45.865Z,67.40
2019-05-01T20:51:20.179Z,67.80
2019-05-01T20:53:52.103Z,68.10
2019-05-01T20:56:43.215Z,68.40
2019-05-01T20:59:15.447Z,68.40
2019-05-01T21:01:47.858Z,68.50
2019-05-01T21:04:37.747Z,68.60
2019-05-01T21:07:15.615Z,68.90
2019-05-01T21:09:52.535Z,69.50
2019-05-01T21:12:21.958Z,70.40
2019-05-01T21:14:54.131Z,69.30
2019-05-01T21:17:26.264Z,70.20
2019-05-01T21:19:58.924Z,71.80
2019-05-01T21:22:31.021Z,72.40
2019-05-01T21:25:04.632Z,72.40
2019-05-01T21:27:37.110Z,73.10
2019-05-01T21:30:09.892Z,73.70
2019-05-01T21:32:43.897Z,73.60
2019-05-01T21:35:15.824Z,74.30
2019-05-01T21:37:48.257Z,74.30
2019-05-01T21:40:20.529Z,74.20
2019-05-01T21:42:55.795Z,74.60
2019-05-01T21:45:26.550Z,75.40
2019-05-01T21:47:58.560Z,75.60
2019-05-01T21:50:30.962Z,75.80
2019-05-01T21:53:06.661Z,76.10
2019-05-01T21:55:37.172Z,76.40
2019-05-01T21:58:09.161Z,76.90
2019-05-01T22:00:42.134Z,77.10
2019-05-01T22:03:16.730Z,77.50
2019-05-01T22:05:49.179Z,77.80
2019-05-01T22:08:21.147Z,78.50
2019-05-01T22:10:57.560Z,79.00
2019-05-01T22:13:27.182Z,79.70
2019-05-01T22:16:06.327Z,80.30
2019-05-01T22:18:53.547Z,80.80
2019-05-01T22:21:47.014Z,81.60
2019-05-01T22:24:36.808Z,82.10
2019-05-01T22:27:13.371Z,82.50
2019-05-01T22:29:56.925Z,83.40
2019-05-01T22:32:49.954Z,84.60
2019-05-01T22:35:31.310Z,85.90
2019-05-01T22:38:05.243Z,88.30
2019-05-01T22:41:06.266Z,89.90
2019-05-01T22:43:31.070Z,90.60
2019-05-01T22:46:04.193Z,91.40
2019-05-01T22:48:36.662Z,92.30
2019-05-01T22:51:15.601Z,93.40
2019-05-01T22:53:49.619Z,94.30
2019-05-01T22:56:21.616Z,95.30
2019-05-01T22:58:53.853Z,96.10
2019-05-01T23:01:27.289Z,96.90
2019-05-01T23:04:12.002Z,98.00
2019-05-01T23:06:43.671Z,98.90
2019-05-01T23:09:17.431Z,99.90
2019-05-01T23:11:49.598Z,99.90
2019-05-01T23:14:23.109Z,99.90
2019-05-01T23:17:11.078Z,99.90
2019-05-01T23:19:43.129Z,99.90
2019-05-01T23:22:16.291Z,99.90
2019-05-01T23:24:48.355Z,99.90
2019-05-01T23:27:24.395Z,99.90
2019-05-01T23:29:54.598Z,99.90
2019-05-01T23:32:26.629Z,99.90
2019-05-01T23:34:58.741Z,99.90
2019-05-01T23:37:30.925Z,99.90
2019-05-01T23:40:03.111Z,99.90
2019-05-01T23:42:35.254Z,99.90
2019-05-01T23:45:08.487Z,99.90
2019-05-01T23:47:43.645Z,99.90
2019-05-01T23:50:15.101Z,99.90
2019-05-01T23:52:47.271Z,99.90
2019-05-01T23:55:19.509Z,99.90
2019-05-01T23:57:51.734Z,99.90
